sensor_id;sensor_type;location;lat;lon;timestamp;P1;durP1;ratioP1;P2;durP2;ratioP2
59097;SDS011;44883;52.760;6.610;2022-08-11T00:00:03;6.55;;;3.90;;
59097;SDS011;44883;52.760;6.610;2022-08-11T00:02:38;7.93;;;6.03;;
59097;SDS011;44883;52.760;6.610;2022-08-11T00:05:11;14.10;;;10.52;;
59097;SDS011;44883;52.760;6.610;2022-08-11T00:07:52;25.63;;;20.08;;
59097;SDS011;44883;52.760;6.610;2022-08-11T00:10:25;9.52;;;6.47;;
59097;SDS011;44883;52.760;6.610;2022-08-11T00:12:54;29.77;;;26.05;;
59097;SDS011;44883;52.760;6.610;2022-08-11T00:15:26;23.45;;;19.60;;
59097;SDS011;44883;52.760;6.610;2022-08-11T00:18:01;11.05;;;9.02;;
59097;SDS011;44883;52.760;6.610;2022-08-11T00:20:29;8.52;;;6.82;;
59097;SDS011;44883;52.760;6.610;2022-08-11T00:23:06;11.27;;;6.40;;
59097;SDS011;44883;52.760;6.610;2022-08-11T00:25:41;8.43;;;6.28;;
59097;SDS011;44883;52.760;6.610;2022-08-11T00:30:59;7.93;;;6.55;;
59097;SDS011;44883;52.760;6.610;2022-08-11T00:33:31;9.60;;;6.85;;
59097;SDS011;44883;52.760;6.610;2022-08-11T00:36:02;8.65;;;6.20;;
59097;SDS011;44883;52.760;6.610;2022-08-11T00:38:30;9.40;;;6.63;;
59097;SDS011;44883;52.760;6.610;2022-08-11T00:55:30;7.93;;;6.47;;
59097;SDS011;44883;52.760;6.610;2022-08-11T01:00:32;11.20;;;6.93;;
59097;SDS011;44883;52.760;6.610;2022-08-11T01:17:42;9.07;;;7.15;;
59097;SDS011;44883;52.760;6.610;2022-08-11T01:20:30;9.20;;;6.80;;
59097;SDS011;44883;52.760;6.610;2022-08-11T01:23:41;9.40;;;7.18;;
59097;SDS011;44883;52.760;6.610;2022-08-11T01:37:57;11.63;;;9.13;;
59097;SDS011;44883;52.760;6.610;2022-08-11T01:43:51;9.07;;;7.72;;
59097;SDS011;44883;52.760;6.610;2022-08-11T01:47:09;9.13;;;8.00;;
59097;SDS011;44883;52.760;6.610;2022-08-11T02:04:14;9.38;;;8.23;;
59097;SDS011;44883;52.760;6.610;2022-08-11T02:09:59;9.80;;;8.50;;
59097;SDS011;44883;52.760;6.610;2022-08-11T02:13:13;9.82;;;8.75;;
59097;SDS011;44883;52.760;6.610;2022-08-11T02:15:48;9.65;;;8.15;;
59097;SDS011;44883;52.760;6.610;2022-08-11T02:21:12;11.85;;;9.40;;
59097;SDS011;44883;52.760;6.610;2022-08-11T02:24:03;10.55;;;9.32;;
59097;SDS011;44883;52.760;6.610;2022-08-11T02:26:46;9.50;;;8.48;;
59097;SDS011;44883;52.760;6.610;2022-08-11T02:29:24;7.60;;;4.18;;
59097;SDS011;44883;52.760;6.610;2022-08-11T02:32:20;7.65;;;3.75;;
59097;SDS011;44883;52.760;6.610;2022-08-11T02:35:16;10.57;;;8.75;;
59097;SDS011;44883;52.760;6.610;2022-08-11T02:38:05;10.25;;;9.13;;
59097;SDS011;44883;52.760;6.610;2022-08-11T02:40:48;11.10;;;9.75;;
59097;SDS011;44883;52.760;6.610;2022-08-11T02:43:21;13.70;;;10.02;;
59097;SDS011;44883;52.760;6.610;2022-08-11T02:54:42;11.82;;;10.63;;
59097;SDS011;44883;52.760;6.610;2022-08-11T02:57:34;11.30;;;10.20;;
59097;SDS011;44883;52.760;6.610;2022-08-11T03:00:09;10.43;;;9.40;;
59097;SDS011;44883;52.760;6.610;2022-08-11T03:16:24;11.35;;;10.15;;
59097;SDS011;44883;52.760;6.610;2022-08-11T03:19:12;12.98;;;11.68;;
59097;SDS011;44883;52.760;6.610;2022-08-11T03:22:03;12.23;;;10.98;;
59097;SDS011;44883;52.760;6.610;2022-08-11T03:27:30;13.90;;;11.57;;
59097;SDS011;44883;52.760;6.610;2022-08-11T03:30:21;14.00;;;11.88;;
59097;SDS011;44883;52.760;6.610;2022-08-11T03:33:14;14.25;;;11.77;;
59097;SDS011;44883;52.760;6.610;2022-08-11T03:42:23;13.65;;;12.25;;
59097;SDS011;44883;52.760;6.610;2022-08-11T03:50:54;8.07;;;4.78;;
59097;SDS011;44883;52.760;6.610;2022-08-11T04:05:16;11.30;;;10.07;;
59097;SDS011;44883;52.760;6.610;2022-08-11T04:11:01;13.85;;;12.55;;
59097;SDS011;44883;52.760;6.610;2022-08-11T04:17:29;13.23;;;10.90;;
59097;SDS011;44883;52.760;6.610;2022-08-11T04:19:41;11.30;;;9.40;;
59097;SDS011;44883;52.760;6.610;2022-08-11T04:22:39;13.95;;;10.85;;
59097;SDS011;44883;52.760;6.610;2022-08-11T04:51:45;10.80;;;9.70;;
59097;SDS011;44883;52.760;6.610;2022-08-11T04:55:13;10.40;;;9.32;;
59097;SDS011;44883;52.760;6.610;2022-08-11T05:16:16;10.65;;;9.13;;
59097;SDS011;44883;52.760;6.610;2022-08-11T05:19:04;10.23;;;8.88;;
59097;SDS011;44883;52.760;6.610;2022-08-11T05:21:53;10.30;;;9.20;;
59097;SDS011;44883;52.760;6.610;2022-08-11T05:24:41;11.52;;;8.80;;
59097;SDS011;44883;52.760;6.610;2022-08-11T05:27:37;10.45;;;8.75;;
59097;SDS011;44883;52.760;6.610;2022-08-11T05:30:27;10.02;;;8.38;;
59097;SDS011;44883;52.760;6.610;2022-08-11T05:33:14;8.77;;;7.88;;
59097;SDS011;44883;52.760;6.610;2022-08-11T05:36:10;12.25;;;8.88;;
59097;SDS011;44883;52.760;6.610;2022-08-11T05:38:48;9.15;;;7.57;;
59097;SDS011;44883;52.760;6.610;2022-08-11T05:41:38;10.23;;;7.95;;
59097;SDS011;44883;52.760;6.610;2022-08-11T05:44:24;8.48;;;7.28;;
59097;SDS011;44883;52.760;6.610;2022-08-11T05:47:19;8.18;;;7.25;;
59097;SDS011;44883;52.760;6.610;2022-08-11T05:50:11;9.43;;;8.20;;
59097;SDS011;44883;52.760;6.610;2022-08-11T05:52:57;8.48;;;6.82;;
59097;SDS011;44883;52.760;6.610;2022-08-11T05:55:43;8.32;;;7.00;;
59097;SDS011;44883;52.760;6.610;2022-08-11T05:58:37;8.93;;;7.10;;
59097;SDS011;44883;52.760;6.610;2022-08-11T06:01:05;11.60;;;7.22;;
59097;SDS011;44883;52.760;6.610;2022-08-11T06:03:32;8.90;;;7.22;;
59097;SDS011;44883;52.760;6.610;2022-08-11T06:06:19;8.45;;;7.28;;
59097;SDS011;44883;52.760;6.610;2022-08-11T06:08:46;7.25;;;6.25;;
59097;SDS011;44883;52.760;6.610;2022-08-11T06:11:13;11.85;;;6.53;;
59097;SDS011;44883;52.760;6.610;2022-08-11T06:13:45;8.65;;;7.22;;
59097;SDS011;44883;52.760;6.610;2022-08-11T06:16:12;8.87;;;6.60;;
59097;SDS011;44883;52.760;6.610;2022-08-11T06:18:44;7.78;;;5.47;;
59097;SDS011;44883;52.760;6.610;2022-08-11T06:21:13;8.50;;;5.32;;
59097;SDS011;44883;52.760;6.610;2022-08-11T06:23:40;7.78;;;5.70;;
59097;SDS011;44883;52.760;6.610;2022-08-11T06:26:07;7.65;;;5.38;;
59097;SDS011;44883;52.760;6.610;2022-08-11T06:28:35;6.90;;;5.22;;
59097;SDS011;44883;52.760;6.610;2022-08-11T06:31:09;8.25;;;4.90;;
59097;SDS011;44883;52.760;6.610;2022-08-11T06:39:51;6.95;;;4.60;;
59097;SDS011;44883;52.760;6.610;2022-08-11T06:42:56;7.57;;;4.30;;
59097;SDS011;44883;52.760;6.610;2022-08-11T06:47:59;6.22;;;3.85;;
59097;SDS011;44883;52.760;6.610;2022-08-11T06:50:27;6.47;;;4.28;;
59097;SDS011;44883;52.760;6.610;2022-08-11T06:53:14;5.15;;;3.75;;
59097;SDS011;44883;52.760;6.610;2022-08-11T06:55:42;5.30;;;3.42;;
59097;SDS011;44883;52.760;6.610;2022-08-11T06:58:29;5.75;;;3.72;;
59097;SDS011;44883;52.760;6.610;2022-08-11T07:01:19;5.95;;;3.75;;
59097;SDS011;44883;52.760;6.610;2022-08-11T07:04:10;5.75;;;3.30;;
59097;SDS011;44883;52.760;6.610;2022-08-11T07:13:11;5.30;;;3.17;;
59097;SDS011;44883;52.760;6.610;2022-08-11T07:15:58;5.43;;;2.83;;
59097;SDS011;44883;52.760;6.610;2022-08-11T07:18:26;4.35;;;2.75;;
59097;SDS011;44883;52.760;6.610;2022-08-11T07:21:23;4.35;;;2.70;;
59097;SDS011;44883;52.760;6.610;2022-08-11T07:24:18;4.65;;;2.40;;
59097;SDS011;44883;52.760;6.610;2022-08-11T07:27:07;4.30;;;2.30;;
59097;SDS011;44883;52.760;6.610;2022-08-11T07:30:03;5.25;;;2.60;;
59097;SDS011;44883;52.760;6.610;2022-08-11T07:32:34;4.47;;;2.28;;
59097;SDS011;44883;52.760;6.610;2022-08-11T07:35:07;4.45;;;2.20;;
59097;SDS011;44883;52.760;6.610;2022-08-11T07:37:38;3.70;;;2.35;;
59097;SDS011;44883;52.760;6.610;2022-08-11T07:40:06;4.05;;;2.33;;
59097;SDS011;44883;52.760;6.610;2022-08-11T07:42:33;4.78;;;2.20;;
59097;SDS011;44883;52.760;6.610;2022-08-11T07:45:00;4.53;;;2.00;;
59097;SDS011;44883;52.760;6.610;2022-08-11T07:47:47;3.83;;;1.85;;
59097;SDS011;44883;52.760;6.610;2022-08-11T07:50:33;3.55;;;1.98;;
59097;SDS011;44883;52.760;6.610;2022-08-11T07:53:17;3.60;;;1.92;;
59097;SDS011;44883;52.760;6.610;2022-08-11T07:55:47;2.95;;;1.80;;
59097;SDS011;44883;52.760;6.610;2022-08-11T07:58:14;3.80;;;1.90;;
59097;SDS011;44883;52.760;6.610;2022-08-11T08:00:59;3.85;;;1.67;;
59097;SDS011;44883;52.760;6.610;2022-08-11T08:03:43;3.70;;;1.80;;
59097;SDS011;44883;52.760;6.610;2022-08-11T08:06:29;3.83;;;1.77;;
59097;SDS011;44883;52.760;6.610;2022-08-11T08:09:16;3.08;;;1.63;;
59097;SDS011;44883;52.760;6.610;2022-08-11T08:12:02;3.97;;;1.70;;
59097;SDS011;44883;52.760;6.610;2022-08-11T08:14:49;2.72;;;1.63;;
59097;SDS011;44883;52.760;6.610;2022-08-11T08:17:35;1.88;;;1.38;;
59097;SDS011;44883;52.760;6.610;2022-08-11T08:20:18;4.32;;;1.58;;
59097;SDS011;44883;52.760;6.610;2022-08-11T08:22:49;2.28;;;1.50;;
59097;SDS011;44883;52.760;6.610;2022-08-11T08:25:20;5.38;;;1.60;;
59097;SDS011;44883;52.760;6.610;2022-08-11T08:27:48;3.90;;;1.70;;
59097;SDS011;44883;52.760;6.610;2022-08-11T08:30:15;3.55;;;1.52;;
59097;SDS011;44883;52.760;6.610;2022-08-11T08:33:00;3.53;;;1.55;;
59097;SDS011;44883;52.760;6.610;2022-08-11T08:35:26;2.75;;;1.50;;
59097;SDS011;44883;52.760;6.610;2022-08-11T08:37:54;2.33;;;1.30;;
59097;SDS011;44883;52.760;6.610;2022-08-11T08:40:21;4.15;;;1.60;;
59097;SDS011;44883;52.760;6.610;2022-08-11T08:42:54;3.60;;;1.42;;
59097;SDS011;44883;52.760;6.610;2022-08-11T08:45:24;3.80;;;1.83;;
59097;SDS011;44883;52.760;6.610;2022-08-11T08:47:58;2.20;;;1.30;;
59097;SDS011;44883;52.760;6.610;2022-08-11T08:50:26;3.03;;;1.45;;
59097;SDS011;44883;52.760;6.610;2022-08-11T08:53:17;2.63;;;1.38;;
59097;SDS011;44883;52.760;6.610;2022-08-11T08:55:45;4.70;;;1.50;;
59097;SDS011;44883;52.760;6.610;2022-08-11T08:58:12;3.53;;;1.27;;
59097;SDS011;44883;52.760;6.610;2022-08-11T09:00:40;3.70;;;1.15;;
59097;SDS011;44883;52.760;6.610;2022-08-11T09:03:09;2.10;;;1.30;;
59097;SDS011;44883;52.760;6.610;2022-08-11T09:05:36;4.82;;;1.50;;
59097;SDS011;44883;52.760;6.610;2022-08-11T09:08:03;2.88;;;1.30;;
59097;SDS011;44883;52.760;6.610;2022-08-11T09:10:29;2.42;;;1.42;;
59097;SDS011;44883;52.760;6.610;2022-08-11T09:12:55;2.67;;;1.20;;
59097;SDS011;44883;52.760;6.610;2022-08-11T09:15:23;6.00;;;1.30;;
59097;SDS011;44883;52.760;6.610;2022-08-11T09:17:53;2.03;;;1.02;;
59097;SDS011;44883;52.760;6.610;2022-08-11T09:20:25;3.45;;;1.65;;
59097;SDS011;44883;52.760;6.610;2022-08-11T09:22:56;4.65;;;1.40;;
59097;SDS011;44883;52.760;6.610;2022-08-11T09:25:41;3.75;;;1.33;;
59097;SDS011;44883;52.760;6.610;2022-08-11T09:28:27;3.20;;;1.30;;
59097;SDS011;44883;52.760;6.610;2022-08-11T09:30:54;3.15;;;1.42;;
59097;SDS011;44883;52.760;6.610;2022-08-11T09:33:22;3.90;;;1.67;;
59097;SDS011;44883;52.760;6.610;2022-08-11T09:35:49;2.55;;;2.10;;
59097;SDS011;44883;52.760;6.610;2022-08-11T09:38:17;5.70;;;2.35;;
59097;SDS011;44883;52.760;6.610;2022-08-11T09:41:03;3.13;;;2.10;;
59097;SDS011;44883;52.760;6.610;2022-08-11T09:43:32;4.35;;;1.80;;
59097;SDS011;44883;52.760;6.610;2022-08-11T09:46:21;5.57;;;2.03;;
59097;SDS011;44883;52.760;6.610;2022-08-11T09:48:51;3.58;;;1.60;;
59097;SDS011;44883;52.760;6.610;2022-08-11T09:51:20;3.67;;;1.75;;
59097;SDS011;44883;52.760;6.610;2022-08-11T09:53:47;4.03;;;1.70;;
59097;SDS011;44883;52.760;6.610;2022-08-11T09:56:18;2.78;;;1.70;;
59097;SDS011;44883;52.760;6.610;2022-08-11T09:59:05;5.15;;;1.55;;
59097;SDS011;44883;52.760;6.610;2022-08-11T10:01:33;5.80;;;1.60;;
59097;SDS011;44883;52.760;6.610;2022-08-11T10:04:26;2.88;;;1.58;;
59097;SDS011;44883;52.760;6.610;2022-08-11T10:06:59;2.40;;;1.67;;
59097;SDS011;44883;52.760;6.610;2022-08-11T10:09:41;3.28;;;1.40;;
59097;SDS011;44883;52.760;6.610;2022-08-11T10:12:13;3.22;;;1.58;;
59097;SDS011;44883;52.760;6.610;2022-08-11T10:14:50;3.53;;;1.42;;
59097;SDS011;44883;52.760;6.610;2022-08-11T10:17:39;2.88;;;1.52;;
59097;SDS011;44883;52.760;6.610;2022-08-11T10:20:29;3.33;;;1.80;;
59097;SDS011;44883;52.760;6.610;2022-08-11T10:22:58;2.78;;;1.70;;
59097;SDS011;44883;52.760;6.610;2022-08-11T10:25:45;3.25;;;1.65;;
59097;SDS011;44883;52.760;6.610;2022-08-11T10:28:29;3.20;;;1.45;;
59097;SDS011;44883;52.760;6.610;2022-08-11T10:30:57;3.40;;;1.70;;
59097;SDS011;44883;52.760;6.610;2022-08-11T10:33:43;2.78;;;1.50;;
59097;SDS011;44883;52.760;6.610;2022-08-11T10:36:28;4.65;;;1.55;;
59097;SDS011;44883;52.760;6.610;2022-08-11T10:38:56;2.03;;;1.55;;
59097;SDS011;44883;52.760;6.610;2022-08-11T10:41:23;6.35;;;1.50;;
59097;SDS011;44883;52.760;6.610;2022-08-11T10:44:08;2.35;;;1.50;;
59097;SDS011;44883;52.760;6.610;2022-08-11T10:46:36;3.08;;;1.50;;
59097;SDS011;44883;52.760;6.610;2022-08-11T10:49:21;3.63;;;1.63;;
59097;SDS011;44883;52.760;6.610;2022-08-11T10:51:49;3.85;;;1.80;;
59097;SDS011;44883;52.760;6.610;2022-08-11T10:54:34;2.53;;;1.50;;
59097;SDS011;44883;52.760;6.610;2022-08-11T10:57:20;2.90;;;1.45;;
59097;SDS011;44883;52.760;6.610;2022-08-11T11:00:05;3.15;;;1.80;;
59097;SDS011;44883;52.760;6.610;2022-08-11T11:02:34;2.70;;;1.33;;
59097;SDS011;44883;52.760;6.610;2022-08-11T11:07:37;2.92;;;1.60;;
59097;SDS011;44883;52.760;6.610;2022-08-11T11:10:11;3.03;;;1.50;;
59097;SDS011;44883;52.760;6.610;2022-08-11T11:12:39;2.63;;;1.60;;
59097;SDS011;44883;52.760;6.610;2022-08-11T11:15:28;3.70;;;1.60;;
59097;SDS011;44883;52.760;6.610;2022-08-11T11:18:23;3.90;;;1.63;;
59097;SDS011;44883;52.760;6.610;2022-08-11T11:32:23;4.20;;;1.63;;
59097;SDS011;44883;52.760;6.610;2022-08-11T11:37:53;3.33;;;1.60;;
59097;SDS011;44883;52.760;6.610;2022-08-11T11:40:21;3.72;;;1.50;;
59097;SDS011;44883;52.760;6.610;2022-08-11T11:42:48;3.90;;;1.50;;
59097;SDS011;44883;52.760;6.610;2022-08-11T11:45:19;4.47;;;1.58;;
59097;SDS011;44883;52.760;6.610;2022-08-11T11:47:49;3.13;;;1.40;;
59097;SDS011;44883;52.760;6.610;2022-08-11T11:50:27;2.08;;;1.50;;
59097;SDS011;44883;52.760;6.610;2022-08-11T11:52:55;3.97;;;1.70;;
59097;SDS011;44883;52.760;6.610;2022-08-11T11:55:24;2.72;;;1.50;;
59097;SDS011;44883;52.760;6.610;2022-08-11T11:57:51;3.35;;;1.30;;
59097;SDS011;44883;52.760;6.610;2022-08-11T12:00:37;4.25;;;1.42;;
59097;SDS011;44883;52.760;6.610;2022-08-11T12:03:22;3.33;;;1.60;;
59097;SDS011;44883;52.760;6.610;2022-08-11T12:05:49;3.90;;;1.60;;
59097;SDS011;44883;52.760;6.610;2022-08-11T12:08:17;4.03;;;1.50;;
59097;SDS011;44883;52.760;6.610;2022-08-11T12:10:48;2.83;;;1.30;;
59097;SDS011;44883;52.760;6.610;2022-08-11T12:13:17;3.53;;;1.40;;
59097;SDS011;44883;52.760;6.610;2022-08-11T12:16:04;3.92;;;1.40;;
59097;SDS011;44883;52.760;6.610;2022-08-11T12:18:33;3.65;;;1.30;;
59097;SDS011;44883;52.760;6.610;2022-08-11T12:21:00;4.00;;;1.70;;
59097;SDS011;44883;52.760;6.610;2022-08-11T12:23:27;3.97;;;1.60;;
59097;SDS011;44883;52.760;6.610;2022-08-11T12:26:14;1.60;;;1.30;;
59097;SDS011;44883;52.760;6.610;2022-08-11T12:29:00;2.55;;;1.45;;
59097;SDS011;44883;52.760;6.610;2022-08-11T12:31:28;3.63;;;1.70;;
59097;SDS011;44883;52.760;6.610;2022-08-11T12:34:02;2.00;;;1.27;;
59097;SDS011;44883;52.760;6.610;2022-08-11T12:36:38;2.88;;;1.42;;
59097;SDS011;44883;52.760;6.610;2022-08-11T12:39:11;3.40;;;1.48;;
59097;SDS011;44883;52.760;6.610;2022-08-11T12:41:43;2.50;;;1.50;;
59097;SDS011;44883;52.760;6.610;2022-08-11T12:44:28;4.55;;;1.42;;
59097;SDS011;44883;52.760;6.610;2022-08-11T12:47:15;2.92;;;1.40;;
59097;SDS011;44883;52.760;6.610;2022-08-11T12:49:44;3.30;;;1.50;;
59097;SDS011;44883;52.760;6.610;2022-08-11T12:52:36;4.93;;;1.60;;
59097;SDS011;44883;52.760;6.610;2022-08-11T12:55:11;2.75;;;1.42;;
59097;SDS011;44883;52.760;6.610;2022-08-11T12:57:58;2.80;;;1.30;;
59097;SDS011;44883;52.760;6.610;2022-08-11T13:00:41;3.38;;;1.50;;
59097;SDS011;44883;52.760;6.610;2022-08-11T13:03:27;2.83;;;1.27;;
59097;SDS011;44883;52.760;6.610;2022-08-11T13:06:16;3.30;;;1.38;;
59097;SDS011;44883;52.760;6.610;2022-08-11T13:08:43;3.85;;;1.30;;
59097;SDS011;44883;52.760;6.610;2022-08-11T13:11:10;2.92;;;1.40;;
59097;SDS011;44883;52.760;6.610;2022-08-11T13:13:56;3.38;;;1.40;;
59097;SDS011;44883;52.760;6.610;2022-08-11T13:16:28;2.40;;;1.30;;
59097;SDS011;44883;52.760;6.610;2022-08-11T13:19:18;3.75;;;1.40;;
59097;SDS011;44883;52.760;6.610;2022-08-11T13:21:46;3.15;;;1.33;;
59097;SDS011;44883;52.760;6.610;2022-08-11T13:24:13;3.40;;;1.27;;
59097;SDS011;44883;52.760;6.610;2022-08-11T13:26:43;2.10;;;1.23;;
59097;SDS011;44883;52.760;6.610;2022-08-11T13:29:12;2.03;;;1.20;;
59097;SDS011;44883;52.760;6.610;2022-08-11T13:31:41;1.83;;;1.25;;
59097;SDS011;44883;52.760;6.610;2022-08-11T13:34:07;2.05;;;1.25;;
59097;SDS011;44883;52.760;6.610;2022-08-11T13:36:33;2.67;;;1.30;;
59097;SDS011;44883;52.760;6.610;2022-08-11T13:39:00;4.22;;;1.20;;
59097;SDS011;44883;52.760;6.610;2022-08-11T13:41:27;3.08;;;1.10;;
59097;SDS011;44883;52.760;6.610;2022-08-11T13:44:08;2.45;;;1.20;;
59097;SDS011;44883;52.760;6.610;2022-08-11T13:46:36;3.55;;;1.20;;
59097;SDS011;44883;52.760;6.610;2022-08-11T13:49:03;2.42;;;1.10;;
59097;SDS011;44883;52.760;6.610;2022-08-11T13:51:31;2.85;;;1.38;;
59097;SDS011;44883;52.760;6.610;2022-08-11T13:54:05;4.97;;;1.77;;
59097;SDS011;44883;52.760;6.610;2022-08-11T13:56:32;1.65;;;1.23;;
59097;SDS011;44883;52.760;6.610;2022-08-11T13:58:59;2.05;;;1.17;;
59097;SDS011;44883;52.760;6.610;2022-08-11T14:01:30;3.15;;;1.23;;
59097;SDS011;44883;52.760;6.610;2022-08-11T14:04:19;2.08;;;1.00;;
59097;SDS011;44883;52.760;6.610;2022-08-11T14:07:06;3.35;;;1.30;;
59097;SDS011;44883;52.760;6.610;2022-08-11T14:09:38;2.53;;;1.10;;
59097;SDS011;44883;52.760;6.610;2022-08-11T14:12:08;2.90;;;1.23;;
59097;SDS011;44883;52.760;6.610;2022-08-11T14:15:09;6.32;;;1.30;;
59097;SDS011;44883;52.760;6.610;2022-08-11T14:17:43;5.85;;;1.27;;
59097;SDS011;44883;52.760;6.610;2022-08-11T14:20:14;2.85;;;1.10;;
59097;SDS011;44883;52.760;6.610;2022-08-11T14:22:42;2.88;;;1.20;;
59097;SDS011;44883;52.760;6.610;2022-08-11T14:25:11;2.88;;;1.23;;
59097;SDS011;44883;52.760;6.610;2022-08-11T14:27:40;2.45;;;0.98;;
59097;SDS011;44883;52.760;6.610;2022-08-11T14:30:08;2.78;;;1.20;;
59097;SDS011;44883;52.760;6.610;2022-08-11T14:32:54;6.43;;;1.20;;
59097;SDS011;44883;52.760;6.610;2022-08-11T14:35:21;4.70;;;1.30;;
59097;SDS011;44883;52.760;6.610;2022-08-11T14:37:48;3.65;;;1.30;;
59097;SDS011;44883;52.760;6.610;2022-08-11T14:40:14;2.10;;;1.20;;
59097;SDS011;44883;52.760;6.610;2022-08-11T14:42:59;4.30;;;1.40;;
59097;SDS011;44883;52.760;6.610;2022-08-11T14:45:44;3.55;;;1.20;;
59097;SDS011;44883;52.760;6.610;2022-08-11T14:48:29;2.72;;;1.23;;
59097;SDS011;44883;52.760;6.610;2022-08-11T14:50:55;5.13;;;1.58;;
59097;SDS011;44883;52.760;6.610;2022-08-11T14:53:22;3.63;;;1.30;;
59097;SDS011;44883;52.760;6.610;2022-08-11T14:55:48;4.13;;;1.30;;
59097;SDS011;44883;52.760;6.610;2022-08-11T14:58:33;3.08;;;1.10;;
59097;SDS011;44883;52.760;6.610;2022-08-11T15:01:01;2.83;;;1.13;;
59097;SDS011;44883;52.760;6.610;2022-08-11T15:03:28;6.75;;;1.40;;
59097;SDS011;44883;52.760;6.610;2022-08-11T15:05:58;2.97;;;1.23;;
59097;SDS011;44883;52.760;6.610;2022-08-11T15:08:27;3.60;;;1.17;;
59097;SDS011;44883;52.760;6.610;2022-08-11T15:11:14;4.10;;;1.00;;
59097;SDS011;44883;52.760;6.610;2022-08-11T15:14:01;2.97;;;1.13;;
59097;SDS011;44883;52.760;6.610;2022-08-11T15:16:28;4.47;;;1.45;;
59097;SDS011;44883;52.760;6.610;2022-08-11T15:19:13;3.28;;;1.50;;
59097;SDS011;44883;52.760;6.610;2022-08-11T15:21:40;4.22;;;1.55;;
59097;SDS011;44883;52.760;6.610;2022-08-11T15:24:24;2.45;;;1.30;;
59097;SDS011;44883;52.760;6.610;2022-08-11T15:26:50;3.70;;;1.45;;
59097;SDS011;44883;52.760;6.610;2022-08-11T15:29:35;2.50;;;1.17;;
59097;SDS011;44883;52.760;6.610;2022-08-11T15:32:23;5.75;;;1.63;;
59097;SDS011;44883;52.760;6.610;2022-08-11T15:35:08;2.60;;;1.30;;
59097;SDS011;44883;52.760;6.610;2022-08-11T15:37:55;2.65;;;1.20;;
59097;SDS011;44883;52.760;6.610;2022-08-11T15:40:26;3.85;;;1.45;;
59097;SDS011;44883;52.760;6.610;2022-08-11T15:43:16;2.42;;;1.20;;
59097;SDS011;44883;52.760;6.610;2022-08-11T15:46:07;2.00;;;1.20;;
59097;SDS011;44883;52.760;6.610;2022-08-11T15:48:45;2.88;;;1.20;;
59097;SDS011;44883;52.760;6.610;2022-08-11T15:53:50;3.63;;;1.40;;
59097;SDS011;44883;52.760;6.610;2022-08-11T15:56:18;3.63;;;1.45;;
59097;SDS011;44883;52.760;6.610;2022-08-11T15:58:48;2.67;;;1.20;;
59097;SDS011;44883;52.760;6.610;2022-08-11T16:01:34;5.63;;;1.40;;
59097;SDS011;44883;52.760;6.610;2022-08-11T16:04:22;2.25;;;1.20;;
59097;SDS011;44883;52.760;6.610;2022-08-11T16:07:01;2.53;;;1.30;;
59097;SDS011;44883;52.760;6.610;2022-08-11T16:12:38;2.30;;;1.23;;
59097;SDS011;44883;52.760;6.610;2022-08-11T16:15:08;2.95;;;1.20;;
59097;SDS011;44883;52.760;6.610;2022-08-11T16:17:58;2.80;;;1.25;;
59097;SDS011;44883;52.760;6.610;2022-08-11T16:20:26;2.70;;;1.38;;
59097;SDS011;44883;52.760;6.610;2022-08-11T16:22:55;4.50;;;1.52;;
59097;SDS011;44883;52.760;6.610;2022-08-11T16:25:26;3.30;;;1.40;;
59097;SDS011;44883;52.760;6.610;2022-08-11T16:27:56;3.45;;;1.50;;
59097;SDS011;44883;52.760;6.610;2022-08-11T16:30:30;2.30;;;1.30;;
59097;SDS011;44883;52.760;6.610;2022-08-11T16:32:59;4.25;;;1.30;;
59097;SDS011;44883;52.760;6.610;2022-08-11T16:35:26;3.38;;;1.30;;
59097;SDS011;44883;52.760;6.610;2022-08-11T16:38:16;3.10;;;1.30;;
59097;SDS011;44883;52.760;6.610;2022-08-11T16:41:04;2.83;;;1.20;;
59097;SDS011;44883;52.760;6.610;2022-08-11T16:43:33;3.97;;;1.40;;
59097;SDS011;44883;52.760;6.610;2022-08-11T16:46:22;3.95;;;1.55;;
59097;SDS011;44883;52.760;6.610;2022-08-11T16:49:11;1.60;;;1.20;;
59097;SDS011;44883;52.760;6.610;2022-08-11T16:51:42;2.08;;;1.30;;
59097;SDS011;44883;52.760;6.610;2022-08-11T16:54:08;2.92;;;1.30;;
59097;SDS011;44883;52.760;6.610;2022-08-11T16:56:38;3.30;;;1.40;;
59097;SDS011;44883;52.760;6.610;2022-08-11T17:01:50;3.03;;;1.40;;
59097;SDS011;44883;52.760;6.610;2022-08-11T17:04:19;2.22;;;1.35;;
59097;SDS011;44883;52.760;6.610;2022-08-11T17:07:23;5.90;;;1.50;;
59097;SDS011;44883;52.760;6.610;2022-08-11T17:10:12;3.42;;;1.42;;
59097;SDS011;44883;52.760;6.610;2022-08-11T17:13:07;2.45;;;1.30;;
59097;SDS011;44883;52.760;6.610;2022-08-11T17:15:40;4.47;;;1.50;;
59097;SDS011;44883;52.760;6.610;2022-08-11T17:18:42;2.92;;;1.50;;
59097;SDS011;44883;52.760;6.610;2022-08-11T17:21:16;4.13;;;1.50;;
59097;SDS011;44883;52.760;6.610;2022-08-11T17:23:55;3.78;;;1.50;;
59097;SDS011;44883;52.760;6.610;2022-08-11T17:29:16;4.80;;;1.42;;
59097;SDS011;44883;52.760;6.610;2022-08-11T17:31:45;3.78;;;1.45;;
59097;SDS011;44883;52.760;6.610;2022-08-11T17:34:31;3.85;;;1.65;;
59097;SDS011;44883;52.760;6.610;2022-08-11T17:37:15;3.67;;;1.98;;
59097;SDS011;44883;52.760;6.610;2022-08-11T17:39:42;2.92;;;1.50;;
59097;SDS011;44883;52.760;6.610;2022-08-11T17:42:09;4.55;;;1.38;;
59097;SDS011;44883;52.760;6.610;2022-08-11T17:44:54;3.85;;;1.50;;
59097;SDS011;44883;52.760;6.610;2022-08-11T17:47:38;3.17;;;1.40;;
59097;SDS011;44883;52.760;6.610;2022-08-11T17:50:24;5.47;;;1.40;;
59097;SDS011;44883;52.760;6.610;2022-08-11T17:52:51;2.53;;;1.40;;
59097;SDS011;44883;52.760;6.610;2022-08-11T17:55:36;3.53;;;1.50;;
59097;SDS011;44883;52.760;6.610;2022-08-11T17:58:22;2.05;;;1.40;;
59097;SDS011;44883;52.760;6.610;2022-08-11T18:01:07;3.90;;;1.73;;
59097;SDS011;44883;52.760;6.610;2022-08-11T18:03:35;7.03;;;2.72;;
59097;SDS011;44883;52.760;6.610;2022-08-11T18:06:03;3.08;;;2.15;;
59097;SDS011;44883;52.760;6.610;2022-08-11T18:08:33;3.65;;;2.25;;
59097;SDS011;44883;52.760;6.610;2022-08-11T18:11:21;3.53;;;1.58;;
59097;SDS011;44883;52.760;6.610;2022-08-11T18:14:08;2.50;;;1.55;;
59097;SDS011;44883;52.760;6.610;2022-08-11T18:16:54;4.68;;;1.73;;
59097;SDS011;44883;52.760;6.610;2022-08-11T18:19:38;3.75;;;1.60;;
59097;SDS011;44883;52.760;6.610;2022-08-11T18:22:24;3.70;;;1.60;;
59097;SDS011;44883;52.760;6.610;2022-08-11T18:25:13;4.50;;;1.70;;
59097;SDS011;44883;52.760;6.610;2022-08-11T18:27:59;4.53;;;1.77;;
59097;SDS011;44883;52.760;6.610;2022-08-11T18:30:47;3.88;;;1.95;;
59097;SDS011;44883;52.760;6.610;2022-08-11T18:33:38;5.53;;;2.15;;
59097;SDS011;44883;52.760;6.610;2022-08-11T18:36:28;5.40;;;1.73;;
59097;SDS011;44883;52.760;6.610;2022-08-11T18:39:16;3.30;;;1.70;;
59097;SDS011;44883;52.760;6.610;2022-08-11T18:42:05;3.92;;;1.70;;
59097;SDS011;44883;52.760;6.610;2022-08-11T18:44:52;4.13;;;2.00;;
59097;SDS011;44883;52.760;6.610;2022-08-11T18:47:38;4.32;;;1.75;;
59097;SDS011;44883;52.760;6.610;2022-08-11T18:50:23;6.28;;;2.10;;
59097;SDS011;44883;52.760;6.610;2022-08-11T18:53:09;6.10;;;2.03;;
59097;SDS011;44883;52.760;6.610;2022-08-11T18:55:55;7.10;;;2.03;;
59097;SDS011;44883;52.760;6.610;2022-08-11T18:58:40;4.95;;;1.90;;
59097;SDS011;44883;52.760;6.610;2022-08-11T19:01:27;5.55;;;2.10;;
59097;SDS011;44883;52.760;6.610;2022-08-11T19:04:17;9.30;;;1.85;;
59097;SDS011;44883;52.760;6.610;2022-08-11T19:07:03;6.72;;;2.20;;
59097;SDS011;44883;52.760;6.610;2022-08-11T19:09:48;7.28;;;2.22;;
59097;SDS011;44883;52.760;6.610;2022-08-11T19:12:34;6.70;;;2.10;;
59097;SDS011;44883;52.760;6.610;2022-08-11T19:15:22;7.20;;;2.38;;
59097;SDS011;44883;52.760;6.610;2022-08-11T19:18:08;7.10;;;2.40;;
59097;SDS011;44883;52.760;6.610;2022-08-11T19:20:56;6.72;;;2.15;;
59097;SDS011;44883;52.760;6.610;2022-08-11T19:23:43;7.18;;;2.58;;